sensor_id;sensor_type;location;lat;lon;timestamp;P1;durP1;ratioP1;P2;durP2;ratioP2
50483;SDS011;36409;52.168;20.878;2023-03-16T00:01:21;38.50;;;17.97;;
50483;SDS011;36409;52.168;20.878;2023-03-16T00:03:53;39.17;;;18.00;;
50483;SDS011;36409;52.168;20.878;2023-03-16T00:06:22;37.77;;;17.63;;
50483;SDS011;36409;52.168;20.878;2023-03-16T00:08:52;42.00;;;17.67;;
50483;SDS011;36409;52.168;20.878;2023-03-16T00:11:25;41.87;;;17.70;;
50483;SDS011;36409;52.168;20.878;2023-03-16T00:13:54;40.13;;;16.10;;
50483;SDS011;36409;52.168;20.878;2023-03-16T00:16:24;37.80;;;16.17;;
50483;SDS011;36409;52.168;20.878;2023-03-16T00:18:53;39.87;;;16.57;;
50483;SDS011;36409;52.168;20.878;2023-03-16T00:21:26;38.77;;;17.30;;
50483;SDS011;36409;52.168;20.878;2023-03-16T00:23:58;35.30;;;17.63;;
50483;SDS011;36409;52.168;20.878;2023-03-16T00:26:31;34.07;;;16.13;;
50483;SDS011;36409;52.168;20.878;2023-03-16T00:29:02;37.80;;;18.27;;
50483;SDS011;36409;52.168;20.878;2023-03-16T00:31:33;40.90;;;16.90;;
50483;SDS011;36409;52.168;20.878;2023-03-16T00:34:03;35.77;;;16.30;;
50483;SDS011;36409;52.168;20.878;2023-03-16T00:36:39;38.98;;;15.98;;
50483;SDS011;36409;52.168;20.878;2023-03-16T00:39:08;41.10;;;17.23;;
50483;SDS011;36409;52.168;20.878;2023-03-16T00:41:38;38.27;;;15.27;;
50483;SDS011;36409;52.168;20.878;2023-03-16T00:44:08;38.30;;;15.67;;
50483;SDS011;36409;52.168;20.878;2023-03-16T00:46:38;35.60;;;14.93;;
50483;SDS011;36409;52.168;20.878;2023-03-16T00:49:09;36.00;;;16.17;;
50483;SDS011;36409;52.168;20.878;2023-03-16T00:51:40;43.03;;;15.93;;
50483;SDS011;36409;52.168;20.878;2023-03-16T00:54:13;33.17;;;14.47;;
50483;SDS011;36409;52.168;20.878;2023-03-16T00:56:43;35.17;;;14.70;;
50483;SDS011;36409;52.168;20.878;2023-03-16T00:59:17;31.12;;;14.43;;
50483;SDS011;36409;52.168;20.878;2023-03-16T01:01:54;33.75;;;14.75;;
50483;SDS011;36409;52.168;20.878;2023-03-16T01:04:26;35.73;;;15.10;;
50483;SDS011;36409;52.168;20.878;2023-03-16T01:06:56;35.43;;;15.00;;
50483;SDS011;36409;52.168;20.878;2023-03-16T01:09:26;34.47;;;13.87;;
50483;SDS011;36409;52.168;20.878;2023-03-16T01:11:56;33.87;;;15.33;;
50483;SDS011;36409;52.168;20.878;2023-03-16T01:14:25;33.90;;;14.70;;
50483;SDS011;36409;52.168;20.878;2023-03-16T01:16:56;38.67;;;14.93;;
50483;SDS011;36409;52.168;20.878;2023-03-16T01:19:24;35.27;;;15.57;;
50483;SDS011;36409;52.168;20.878;2023-03-16T01:21:54;32.07;;;12.90;;
50483;SDS011;36409;52.168;20.878;2023-03-16T01:24:24;36.20;;;14.23;;
50483;SDS011;36409;52.168;20.878;2023-03-16T01:26:57;41.40;;;14.97;;
50483;SDS011;36409;52.168;20.878;2023-03-16T01:29:26;35.10;;;14.83;;
50483;SDS011;36409;52.168;20.878;2023-03-16T01:31:57;30.37;;;13.10;;
50483;SDS011;36409;52.168;20.878;2023-03-16T01:34:26;28.93;;;13.43;;
50483;SDS011;36409;52.168;20.878;2023-03-16T01:36:56;30.33;;;13.30;;
50483;SDS011;36409;52.168;20.878;2023-03-16T01:39:48;29.37;;;13.43;;
50483;SDS011;36409;52.168;20.878;2023-03-16T01:42:17;27.83;;;12.80;;
50483;SDS011;36409;52.168;20.878;2023-03-16T01:44:50;33.07;;;13.00;;
50483;SDS011;36409;52.168;20.878;2023-03-16T01:47:23;31.17;;;13.60;;
50483;SDS011;36409;52.168;20.878;2023-03-16T01:49:55;30.37;;;13.30;;
50483;SDS011;36409;52.168;20.878;2023-03-16T01:52:28;31.57;;;13.87;;
50483;SDS011;36409;52.168;20.878;2023-03-16T01:55:03;31.30;;;13.97;;
50483;SDS011;36409;52.168;20.878;2023-03-16T01:57:40;31.40;;;12.87;;
50483;SDS011;36409;52.168;20.878;2023-03-16T02:00:14;29.70;;;13.93;;
50483;SDS011;36409;52.168;20.878;2023-03-16T02:02:59;31.13;;;13.87;;
50483;SDS011;36409;52.168;20.878;2023-03-16T02:05:42;28.73;;;12.80;;
50483;SDS011;36409;52.168;20.878;2023-03-16T02:10:44;31.97;;;13.20;;
50483;SDS011;36409;52.168;20.878;2023-03-16T02:13:14;25.17;;;12.80;;
50483;SDS011;36409;52.168;20.878;2023-03-16T02:15:44;30.47;;;13.40;;
50483;SDS011;36409;52.168;20.878;2023-03-16T02:18:13;35.07;;;15.13;;
50483;SDS011;36409;52.168;20.878;2023-03-16T02:20:46;34.43;;;14.03;;
50483;SDS011;36409;52.168;20.878;2023-03-16T02:23:24;39.10;;;15.33;;
50483;SDS011;36409;52.168;20.878;2023-03-16T02:25:55;29.20;;;14.53;;
50483;SDS011;36409;52.168;20.878;2023-03-16T02:28:34;29.73;;;14.27;;
50483;SDS011;36409;52.168;20.878;2023-03-16T02:31:14;34.50;;;13.90;;
50483;SDS011;36409;52.168;20.878;2023-03-16T02:33:49;31.02;;;14.00;;
50483;SDS011;36409;52.168;20.878;2023-03-16T02:36:21;28.97;;;13.63;;
50483;SDS011;36409;52.168;20.878;2023-03-16T02:38:52;31.27;;;13.70;;
50483;SDS011;36409;52.168;20.878;2023-03-16T02:41:23;35.43;;;15.10;;
50483;SDS011;36409;52.168;20.878;2023-03-16T02:44:00;32.63;;;14.70;;
50483;SDS011;36409;52.168;20.878;2023-03-16T02:46:36;34.10;;;14.53;;
50483;SDS011;36409;52.168;20.878;2023-03-16T02:49:06;33.63;;;14.27;;
50483;SDS011;36409;52.168;20.878;2023-03-16T02:51:43;31.20;;;14.17;;
50483;SDS011;36409;52.168;20.878;2023-03-16T02:54:16;34.53;;;16.12;;
50483;SDS011;36409;52.168;20.878;2023-03-16T02:56:58;37.40;;;15.10;;
50483;SDS011;36409;52.168;20.878;2023-03-16T02:59:30;31.33;;;14.47;;
50483;SDS011;36409;52.168;20.878;2023-03-16T03:02:01;30.00;;;13.87;;
50483;SDS011;36409;52.168;20.878;2023-03-16T03:04:37;33.03;;;14.93;;
50483;SDS011;36409;52.168;20.878;2023-03-16T03:07:09;39.50;;;16.33;;
50483;SDS011;36409;52.168;20.878;2023-03-16T03:09:53;28.77;;;14.00;;
50483;SDS011;36409;52.168;20.878;2023-03-16T03:12:23;35.30;;;15.80;;
50483;SDS011;36409;52.168;20.878;2023-03-16T03:14:53;38.13;;;16.33;;
50483;SDS011;36409;52.168;20.878;2023-03-16T03:17:24;37.90;;;17.53;;
50483;SDS011;36409;52.168;20.878;2023-03-16T03:19:56;29.13;;;14.50;;
50483;SDS011;36409;52.168;20.878;2023-03-16T03:22:34;33.60;;;15.13;;
50483;SDS011;36409;52.168;20.878;2023-03-16T03:25:05;39.03;;;16.37;;
50483;SDS011;36409;52.168;20.878;2023-03-16T03:27:35;37.20;;;16.00;;
50483;SDS011;36409;52.168;20.878;2023-03-16T03:30:10;38.93;;;17.50;;
50483;SDS011;36409;52.168;20.878;2023-03-16T03:32:43;36.23;;;15.43;;
50483;SDS011;36409;52.168;20.878;2023-03-16T03:35:14;36.73;;;16.00;;
50483;SDS011;36409;52.168;20.878;2023-03-16T03:37:43;41.13;;;18.10;;
50483;SDS011;36409;52.168;20.878;2023-03-16T03:40:15;38.60;;;17.20;;
50483;SDS011;36409;52.168;20.878;2023-03-16T03:42:49;33.33;;;15.43;;
50483;SDS011;36409;52.168;20.878;2023-03-16T03:45:19;41.93;;;18.30;;
50483;SDS011;36409;52.168;20.878;2023-03-16T03:47:50;40.10;;;18.43;;
50483;SDS011;36409;52.168;20.878;2023-03-16T03:50:22;41.25;;;18.75;;
50483;SDS011;36409;52.168;20.878;2023-03-16T03:53:03;47.87;;;20.13;;
50483;SDS011;36409;52.168;20.878;2023-03-16T03:55:41;46.47;;;20.33;;
50483;SDS011;36409;52.168;20.878;2023-03-16T03:58:16;48.60;;;19.05;;
50483;SDS011;36409;52.168;20.878;2023-03-16T04:00:46;44.17;;;20.13;;
50483;SDS011;36409;52.168;20.878;2023-03-16T04:03:15;41.73;;;19.10;;
50483;SDS011;36409;52.168;20.878;2023-03-16T04:05:48;42.80;;;18.83;;
50483;SDS011;36409;52.168;20.878;2023-03-16T04:08:18;42.00;;;18.80;;
50483;SDS011;36409;52.168;20.878;2023-03-16T04:10:51;39.57;;;17.33;;
50483;SDS011;36409;52.168;20.878;2023-03-16T04:13:21;40.20;;;17.40;;
50483;SDS011;36409;52.168;20.878;2023-03-16T04:15:55;46.77;;;17.83;;
50483;SDS011;36409;52.168;20.878;2023-03-16T04:18:34;38.75;;;17.85;;
50483;SDS011;36409;52.168;20.878;2023-03-16T04:21:16;33.47;;;15.70;;
50483;SDS011;36409;52.168;20.878;2023-03-16T04:23:47;45.23;;;17.13;;
50483;SDS011;36409;52.168;20.878;2023-03-16T04:26:25;38.17;;;16.07;;
50483;SDS011;36409;52.168;20.878;2023-03-16T04:28:55;32.97;;;16.23;;
50483;SDS011;36409;52.168;20.878;2023-03-16T04:31:25;44.17;;;17.47;;
50483;SDS011;36409;52.168;20.878;2023-03-16T04:33:54;33.60;;;16.50;;
50483;SDS011;36409;52.168;20.878;2023-03-16T04:36:26;39.37;;;18.50;;
50483;SDS011;36409;52.168;20.878;2023-03-16T04:38:55;46.50;;;18.47;;
50483;SDS011;36409;52.168;20.878;2023-03-16T04:41:24;45.90;;;20.43;;
50483;SDS011;36409;52.168;20.878;2023-03-16T04:43:59;46.73;;;21.50;;
50483;SDS011;36409;52.168;20.878;2023-03-16T04:46:28;45.07;;;20.57;;
50483;SDS011;36409;52.168;20.878;2023-03-16T04:49:00;39.83;;;18.90;;
50483;SDS011;36409;52.168;20.878;2023-03-16T04:51:29;42.33;;;17.60;;
50483;SDS011;36409;52.168;20.878;2023-03-16T04:54:08;46.57;;;18.97;;
50483;SDS011;36409;52.168;20.878;2023-03-16T04:56:40;37.33;;;17.47;;
50483;SDS011;36409;52.168;20.878;2023-03-16T04:59:18;35.80;;;16.40;;
50483;SDS011;36409;52.168;20.878;2023-03-16T05:02:00;36.37;;;17.37;;
50483;SDS011;36409;52.168;20.878;2023-03-16T05:04:35;36.55;;;17.45;;
50483;SDS011;36409;52.168;20.878;2023-03-16T05:07:06;34.75;;;16.45;;
50483;SDS011;36409;52.168;20.878;2023-03-16T05:09:37;37.87;;;17.93;;
50483;SDS011;36409;52.168;20.878;2023-03-16T05:12:07;39.07;;;19.33;;
50483;SDS011;36409;52.168;20.878;2023-03-16T05:14:40;39.73;;;18.53;;
50483;SDS011;36409;52.168;20.878;2023-03-16T05:17:29;38.57;;;17.87;;
50483;SDS011;36409;52.168;20.878;2023-03-16T05:19:58;37.77;;;17.33;;
50483;SDS011;36409;52.168;20.878;2023-03-16T05:22:29;44.97;;;19.80;;
50483;SDS011;36409;52.168;20.878;2023-03-16T05:25:11;43.67;;;18.33;;
50483;SDS011;36409;52.168;20.878;2023-03-16T05:27:45;37.90;;;17.83;;
50483;SDS011;36409;52.168;20.878;2023-03-16T05:30:22;40.70;;;17.70;;
50483;SDS011;36409;52.168;20.878;2023-03-16T05:32:52;40.43;;;18.83;;
50483;SDS011;36409;52.168;20.878;2023-03-16T05:35:24;37.03;;;16.97;;
50483;SDS011;36409;52.168;20.878;2023-03-16T05:37:59;41.13;;;18.13;;
50483;SDS011;36409;52.168;20.878;2023-03-16T05:40:30;31.67;;;16.77;;
50483;SDS011;36409;52.168;20.878;2023-03-16T05:43:09;35.33;;;16.00;;
50483;SDS011;36409;52.168;20.878;2023-03-16T05:45:42;39.30;;;16.35;;
50483;SDS011;36409;52.168;20.878;2023-03-16T05:48:14;36.00;;;16.47;;
50483;SDS011;36409;52.168;20.878;2023-03-16T05:50:46;37.70;;;17.07;;
50483;SDS011;36409;52.168;20.878;2023-03-16T05:53:18;38.37;;;16.80;;
50483;SDS011;36409;52.168;20.878;2023-03-16T05:55:51;46.07;;;18.13;;
50483;SDS011;36409;52.168;20.878;2023-03-16T05:58:21;39.40;;;17.73;;
50483;SDS011;36409;52.168;20.878;2023-03-16T06:00:50;41.17;;;17.67;;
50483;SDS011;36409;52.168;20.878;2023-03-16T06:03:26;40.13;;;16.90;;
50483;SDS011;36409;52.168;20.878;2023-03-16T06:05:56;44.53;;;19.90;;
50483;SDS011;36409;52.168;20.878;2023-03-16T06:08:41;38.33;;;18.20;;
50483;SDS011;36409;52.168;20.878;2023-03-16T06:11:11;47.83;;;19.00;;
50483;SDS011;36409;52.168;20.878;2023-03-16T06:13:41;37.43;;;17.00;;
50483;SDS011;36409;52.168;20.878;2023-03-16T06:16:11;36.57;;;17.40;;
50483;SDS011;36409;52.168;20.878;2023-03-16T06:18:41;37.40;;;18.83;;
50483;SDS011;36409;52.168;20.878;2023-03-16T06:21:10;40.77;;;18.20;;
50483;SDS011;36409;52.168;20.878;2023-03-16T06:23:40;33.80;;;17.60;;
50483;SDS011;36409;52.168;20.878;2023-03-16T06:26:10;37.30;;;17.53;;
50483;SDS011;36409;52.168;20.878;2023-03-16T06:28:41;37.30;;;17.13;;
50483;SDS011;36409;52.168;20.878;2023-03-16T06:31:11;40.37;;;17.73;;
50483;SDS011;36409;52.168;20.878;2023-03-16T06:33:41;36.93;;;16.43;;
50483;SDS011;36409;52.168;20.878;2023-03-16T06:36:10;36.53;;;17.63;;
50483;SDS011;36409;52.168;20.878;2023-03-16T06:38:43;37.27;;;18.47;;
50483;SDS011;36409;52.168;20.878;2023-03-16T06:41:23;37.60;;;17.90;;
50483;SDS011;36409;52.168;20.878;2023-03-16T06:43:52;34.23;;;15.73;;
50483;SDS011;36409;52.168;20.878;2023-03-16T06:46:21;41.07;;;16.60;;
50483;SDS011;36409;52.168;20.878;2023-03-16T06:48:51;36.77;;;17.27;;
50483;SDS011;36409;52.168;20.878;2023-03-16T06:51:19;27.33;;;15.80;;
50483;SDS011;36409;52.168;20.878;2023-03-16T06:53:49;33.50;;;16.37;;
50483;SDS011;36409;52.168;20.878;2023-03-16T06:56:19;34.20;;;15.50;;
50483;SDS011;36409;52.168;20.878;2023-03-16T06:58:48;31.03;;;15.93;;
50483;SDS011;36409;52.168;20.878;2023-03-16T07:01:18;30.40;;;16.20;;
50483;SDS011;36409;52.168;20.878;2023-03-16T07:03:48;28.10;;;15.87;;
50483;SDS011;36409;52.168;20.878;2023-03-16T07:06:23;37.73;;;18.37;;
50483;SDS011;36409;52.168;20.878;2023-03-16T07:08:54;33.53;;;18.70;;
50483;SDS011;36409;52.168;20.878;2023-03-16T07:11:24;38.97;;;18.30;;
50483;SDS011;36409;52.168;20.878;2023-03-16T07:13:53;42.47;;;22.00;;
50483;SDS011;36409;52.168;20.878;2023-03-16T07:16:23;39.27;;;18.57;;
50483;SDS011;36409;52.168;20.878;2023-03-16T07:18:53;43.03;;;19.93;;
50483;SDS011;36409;52.168;20.878;2023-03-16T07:21:22;33.33;;;18.73;;
50483;SDS011;36409;52.168;20.878;2023-03-16T07:23:52;35.37;;;18.40;;
50483;SDS011;36409;52.168;20.878;2023-03-16T07:26:24;39.93;;;22.33;;
50483;SDS011;36409;52.168;20.878;2023-03-16T07:28:56;34.75;;;17.30;;
50483;SDS011;36409;52.168;20.878;2023-03-16T07:31:25;33.23;;;16.73;;
50483;SDS011;36409;52.168;20.878;2023-03-16T07:33:58;29.47;;;14.87;;
50483;SDS011;36409;52.168;20.878;2023-03-16T07:36:35;28.47;;;15.90;;
50483;SDS011;36409;52.168;20.878;2023-03-16T07:39:05;28.73;;;15.17;;
50483;SDS011;36409;52.168;20.878;2023-03-16T07:41:34;33.70;;;16.67;;
50483;SDS011;36409;52.168;20.878;2023-03-16T07:44:17;30.10;;;15.10;;
50483;SDS011;36409;52.168;20.878;2023-03-16T07:46:50;29.63;;;16.07;;
50483;SDS011;36409;52.168;20.878;2023-03-16T07:49:24;30.87;;;16.53;;
50483;SDS011;36409;52.168;20.878;2023-03-16T07:51:57;36.47;;;15.60;;
50483;SDS011;36409;52.168;20.878;2023-03-16T07:54:33;26.03;;;15.40;;
50483;SDS011;36409;52.168;20.878;2023-03-16T07:57:03;24.67;;;13.37;;
50483;SDS011;36409;52.168;20.878;2023-03-16T07:59:40;25.77;;;12.83;;
50483;SDS011;36409;52.168;20.878;2023-03-16T08:02:13;22.83;;;12.07;;
50483;SDS011;36409;52.168;20.878;2023-03-16T08:04:45;23.03;;;11.97;;
50483;SDS011;36409;52.168;20.878;2023-03-16T08:07:14;28.40;;;12.37;;
50483;SDS011;36409;52.168;20.878;2023-03-16T08:09:53;22.30;;;11.97;;
50483;SDS011;36409;52.168;20.878;2023-03-16T08:12:27;21.33;;;11.93;;
50483;SDS011;36409;52.168;20.878;2023-03-16T08:14:57;26.53;;;13.20;;
50483;SDS011;36409;52.168;20.878;2023-03-16T08:17:32;22.57;;;12.37;;
50483;SDS011;36409;52.168;20.878;2023-03-16T08:20:02;23.97;;;11.63;;
50483;SDS011;36409;52.168;20.878;2023-03-16T08:25:06;19.33;;;12.10;;
50483;SDS011;36409;52.168;20.878;2023-03-16T08:27:39;22.50;;;11.47;;
50483;SDS011;36409;52.168;20.878;2023-03-16T08:30:10;21.67;;;11.13;;
50483;SDS011;36409;52.168;20.878;2023-03-16T08:32:44;23.93;;;11.93;;
50483;SDS011;36409;52.168;20.878;2023-03-16T08:35:13;19.60;;;11.33;;
50483;SDS011;36409;52.168;20.878;2023-03-16T08:37:44;25.47;;;10.93;;
50483;SDS011;36409;52.168;20.878;2023-03-16T08:40:13;22.23;;;11.47;;
50483;SDS011;36409;52.168;20.878;2023-03-16T08:42:43;23.27;;;10.93;;
50483;SDS011;36409;52.168;20.878;2023-03-16T08:45:14;24.87;;;12.63;;
50483;SDS011;36409;52.168;20.878;2023-03-16T08:47:44;17.05;;;9.60;;
50483;SDS011;36409;52.168;20.878;2023-03-16T08:50:13;15.67;;;8.57;;
50483;SDS011;36409;52.168;20.878;2023-03-16T08:52:43;12.60;;;6.43;;
50483;SDS011;36409;52.168;20.878;2023-03-16T08:55:12;14.07;;;6.97;;
50483;SDS011;36409;52.168;20.878;2023-03-16T08:57:41;14.23;;;6.53;;
50483;SDS011;36409;52.168;20.878;2023-03-16T09:00:13;13.53;;;6.57;;
50483;SDS011;36409;52.168;20.878;2023-03-16T09:02:44;14.47;;;7.13;;
50483;SDS011;36409;52.168;20.878;2023-03-16T09:05:14;14.00;;;7.30;;
50483;SDS011;36409;52.168;20.878;2023-03-16T09:07:45;20.57;;;7.10;;
50483;SDS011;36409;52.168;20.878;2023-03-16T09:10:16;17.13;;;7.40;;
50483;SDS011;36409;52.168;20.878;2023-03-16T09:12:46;18.37;;;7.07;;
50483;SDS011;36409;52.168;20.878;2023-03-16T09:15:16;20.30;;;7.33;;
50483;SDS011;36409;52.168;20.878;2023-03-16T09:17:47;13.60;;;6.33;;
50483;SDS011;36409;52.168;20.878;2023-03-16T09:20:17;17.07;;;7.27;;
50483;SDS011;36409;52.168;20.878;2023-03-16T09:22:54;15.13;;;5.13;;
50483;SDS011;36409;52.168;20.878;2023-03-16T09:25:23;11.70;;;5.47;;
50483;SDS011;36409;52.168;20.878;2023-03-16T09:27:53;16.65;;;6.95;;
50483;SDS011;36409;52.168;20.878;2023-03-16T09:30:22;14.83;;;5.77;;
50483;SDS011;36409;52.168;20.878;2023-03-16T09:32:51;11.57;;;4.67;;
50483;SDS011;36409;52.168;20.878;2023-03-16T09:35:21;10.23;;;5.13;;
50483;SDS011;36409;52.168;20.878;2023-03-16T09:37:50;10.27;;;3.93;;
50483;SDS011;36409;52.168;20.878;2023-03-16T09:40:34;9.65;;;4.03;;
50483;SDS011;36409;52.168;20.878;2023-03-16T09:43:09;13.47;;;6.47;;
50483;SDS011;36409;52.168;20.878;2023-03-16T09:45:54;8.30;;;4.37;;
50483;SDS011;36409;52.168;20.878;2023-03-16T09:48:28;10.33;;;4.30;;
50483;SDS011;36409;52.168;20.878;2023-03-16T09:51:00;10.27;;;4.23;;
50483;SDS011;36409;52.168;20.878;2023-03-16T09:53:35;10.33;;;4.57;;
50483;SDS011;36409;52.168;20.878;2023-03-16T09:56:08;12.07;;;4.80;;
50483;SDS011;36409;52.168;20.878;2023-03-16T09:58:40;14.10;;;4.30;;
50483;SDS011;36409;52.168;20.878;2023-03-16T10:01:13;9.30;;;4.17;;
50483;SDS011;36409;52.168;20.878;2023-03-16T10:04:07;7.37;;;3.60;;
50483;SDS011;36409;52.168;20.878;2023-03-16T10:06:45;10.53;;;3.87;;
50483;SDS011;36409;52.168;20.878;2023-03-16T10:09:25;12.50;;;3.93;;
50483;SDS011;36409;52.168;20.878;2023-03-16T10:11:59;9.33;;;3.90;;
50483;SDS011;36409;52.168;20.878;2023-03-16T10:14:35;7.47;;;3.50;;
50483;SDS011;36409;52.168;20.878;2023-03-16T10:17:12;8.43;;;3.77;;
50483;SDS011;36409;52.168;20.878;2023-03-16T10:19:46;5.58;;;2.98;;
50483;SDS011;36409;52.168;20.878;2023-03-16T10:22:20;9.43;;;3.30;;
50483;SDS011;36409;52.168;20.878;2023-03-16T10:24:58;8.48;;;3.65;;
50483;SDS011;36409;52.168;20.878;2023-03-16T10:27:34;7.43;;;3.87;;
50483;SDS011;36409;52.168;20.878;2023-03-16T10:30:13;10.27;;;3.87;;
50483;SDS011;36409;52.168;20.878;2023-03-16T10:32:47;8.87;;;3.90;;
50483;SDS011;36409;52.168;20.878;2023-03-16T10:35:21;11.73;;;5.03;;
50483;SDS011;36409;52.168;20.878;2023-03-16T10:37:58;7.97;;;4.60;;
50483;SDS011;36409;52.168;20.878;2023-03-16T10:40:30;13.20;;;5.10;;
50483;SDS011;36409;52.168;20.878;2023-03-16T10:43:05;12.30;;;4.70;;
50483;SDS011;36409;52.168;20.878;2023-03-16T10:45:40;14.70;;;4.53;;
50483;SDS011;36409;52.168;20.878;2023-03-16T10:48:12;14.17;;;5.27;;
50483;SDS011;36409;52.168;20.878;2023-03-16T10:50:43;15.13;;;5.23;;
50483;SDS011;36409;52.168;20.878;2023-03-16T10:55:48;12.60;;;4.70;;
50483;SDS011;36409;52.168;20.878;2023-03-16T10:58:24;12.80;;;5.33;;
50483;SDS011;36409;52.168;20.878;2023-03-16T11:00:58;12.83;;;5.43;;
50483;SDS011;36409;52.168;20.878;2023-03-16T11:03:28;17.50;;;6.73;;
50483;SDS011;36409;52.168;20.878;2023-03-16T11:06:07;12.13;;;5.07;;
50483;SDS011;36409;52.168;20.878;2023-03-16T11:08:50;14.00;;;6.37;;
50483;SDS011;36409;52.168;20.878;2023-03-16T11:11:22;11.40;;;5.67;;
50483;SDS011;36409;52.168;20.878;2023-03-16T11:13:58;16.33;;;6.27;;
50483;SDS011;36409;52.168;20.878;2023-03-16T11:16:30;12.27;;;5.20;;
50483;SDS011;36409;52.168;20.878;2023-03-16T11:19:10;14.60;;;5.60;;
50483;SDS011;36409;52.168;20.878;2023-03-16T11:21:45;12.55;;;4.70;;
50483;SDS011;36409;52.168;20.878;2023-03-16T11:24:25;16.33;;;6.17;;
50483;SDS011;36409;52.168;20.878;2023-03-16T11:27:07;17.03;;;5.13;;
50483;SDS011;36409;52.168;20.878;2023-03-16T11:29:47;13.37;;;4.53;;
50483;SDS011;36409;52.168;20.878;2023-03-16T11:32:26;14.50;;;4.87;;
50483;SDS011;36409;52.168;20.878;2023-03-16T11:35:01;13.93;;;5.90;;
50483;SDS011;36409;52.168;20.878;2023-03-16T11:37:42;20.60;;;6.30;;
50483;SDS011;36409;52.168;20.878;2023-03-16T11:40:28;12.73;;;4.20;;
50483;SDS011;36409;52.168;20.878;2023-03-16T11:43:12;17.60;;;7.03;;
50483;SDS011;36409;52.168;20.878;2023-03-16T11:45:58;13.43;;;4.60;;
50483;SDS011;36409;52.168;20.878;2023-03-16T11:48:39;11.90;;;4.00;;
50483;SDS011;36409;52.168;20.878;2023-03-16T11:51:17;12.83;;;4.30;;
50483;SDS011;36409;52.168;20.878;2023-03-16T11:54:01;14.37;;;4.80;;
50483;SDS011;36409;52.168;20.878;2023-03-16T11:56:42;16.67;;;5.03;;
50483;SDS011;36409;52.168;20.878;2023-03-16T11:59:25;14.67;;;3.83;;
50483;SDS011;36409;52.168;20.878;2023-03-16T12:02:30;19.10;;;4.57;;
50483;SDS011;36409;52.168;20.878;2023-03-16T12:05:21;10.65;;;3.80;;
50483;SDS011;36409;52.168;20.878;2023-03-16T12:08:03;11.90;;;4.00;;
50483;SDS011;36409;52.168;20.878;2023-03-16T12:10:46;15.63;;;5.03;;
50483;SDS011;36409;52.168;20.878;2023-03-16T12:13:25;14.47;;;5.53;;
50483;SDS011;36409;52.168;20.878;2023-03-16T12:16:08;15.07;;;4.90;;
50483;SDS011;36409;52.168;20.878;2023-03-16T12:18:43;12.80;;;4.50;;
50483;SDS011;36409;52.168;20.878;2023-03-16T12:21:16;15.43;;;4.87;;
50483;SDS011;36409;52.168;20.878;2023-03-16T12:23:50;12.47;;;4.90;;
50483;SDS011;36409;52.168;20.878;2023-03-16T12:26:22;16.17;;;4.87;;
50483;SDS011;36409;52.168;20.878;2023-03-16T12:28:56;13.33;;;5.40;;
50483;SDS011;36409;52.168;20.878;2023-03-16T12:31:29;13.00;;;4.87;;
50483;SDS011;36409;52.168;20.878;2023-03-16T12:34:11;17.93;;;5.03;;
50483;SDS011;36409;52.168;20.878;2023-03-16T12:39:50;16.20;;;4.40;;
50483;SDS011;36409;52.168;20.878;2023-03-16T12:45:27;13.30;;;5.07;;
50483;SDS011;36409;52.168;20.878;2023-03-16T12:48:07;17.90;;;5.90;;
50483;SDS011;36409;52.168;20.878;2023-03-16T12:50:48;16.23;;;5.17;;
50483;SDS011;36409;52.168;20.878;2023-03-16T12:53:39;15.90;;;5.03;;
50483;SDS011;36409;52.168;20.878;2023-03-16T12:56:10;15.33;;;4.57;;
50483;SDS011;36409;52.168;20.878;2023-03-16T12:58:43;14.27;;;4.83;;
50483;SDS011;36409;52.168;20.878;2023-03-16T13:01:15;21.00;;;5.27;;
50483;SDS011;36409;52.168;20.878;2023-03-16T13:03:47;13.13;;;3.50;;
50483;SDS011;36409;52.168;20.878;2023-03-16T13:06:19;15.23;;;3.27;;
50483;SDS011;36409;52.168;20.878;2023-03-16T13:08:54;12.47;;;4.07;;
50483;SDS011;36409;52.168;20.878;2023-03-16T13:11:26;15.17;;;3.93;;
50483;SDS011;36409;52.168;20.878;2023-03-16T13:14:07;18.93;;;5.03;;
50483;SDS011;36409;52.168;20.878;2023-03-16T13:19:25;14.47;;;4.50;;
50483;SDS011;36409;52.168;20.878;2023-03-16T13:22:04;18.85;;;5.70;;
50483;SDS011;36409;52.168;20.878;2023-03-16T13:24:53;17.03;;;5.10;;
50483;SDS011;36409;52.168;20.878;2023-03-16T13:27:26;13.80;;;5.43;;
50483;SDS011;36409;52.168;20.878;2023-03-16T13:29:57;17.77;;;5.20;;
50483;SDS011;36409;52.168;20.878;2023-03-16T13:32:30;14.87;;;5.27;;
50483;SDS011;36409;52.168;20.878;2023-03-16T13:35:14;11.80;;;3.63;;
50483;SDS011;36409;52.168;20.878;2023-03-16T13:38:12;8.23;;;3.10;;
50483;SDS011;36409;52.168;20.878;2023-03-16T13:40:47;13.40;;;3.53;;
50483;SDS011;36409;52.168;20.878;2023-03-16T13:43:20;12.03;;;3.70;;
50483;SDS011;36409;52.168;20.878;2023-03-16T13:48:59;13.10;;;3.87;;
50483;SDS011;36409;52.168;20.878;2023-03-16T13:51:28;10.47;;;3.43;;
50483;SDS011;36409;52.168;20.878;2023-03-16T13:54:04;12.03;;;3.17;;
50483;SDS011;36409;52.168;20.878;2023-03-16T13:56:45;10.95;;;3.77;;
50483;SDS011;36409;52.168;20.878;2023-03-16T13:59:29;11.45;;;3.60;;
50483;SDS011;36409;52.168;20.878;2023-03-16T14:01:59;14.97;;;4.10;;
50483;SDS011;36409;52.168;20.878;2023-03-16T14:04:30;11.27;;;4.13;;
50483;SDS011;36409;52.168;20.878;2023-03-16T14:07:00;17.65;;;5.10;;
50483;SDS011;36409;52.168;20.878;2023-03-16T14:09:32;10.67;;;3.30;;
50483;SDS011;36409;52.168;20.878;2023-03-16T14:12:02;15.20;;;3.53;;
50483;SDS011;36409;52.168;20.878;2023-03-16T14:14:37;12.03;;;3.57;;
50483;SDS011;36409;52.168;20.878;2023-03-16T14:19:40;16.10;;;4.50;;
50483;SDS011;36409;52.168;20.878;2023-03-16T14:22:14;17.17;;;4.27;;
50483;SDS011;36409;52.168;20.878;2023-03-16T14:24:50;10.90;;;4.57;;
50483;SDS011;36409;52.168;20.878;2023-03-16T14:27:25;18.33;;;7.33;;
50483;SDS011;36409;52.168;20.878;2023-03-16T14:30:00;11.93;;;4.73;;
50483;SDS011;36409;52.168;20.878;2023-03-16T14:32:52;10.73;;;4.67;;
50483;SDS011;36409;52.168;20.878;2023-03-16T14:35:25;12.47;;;3.50;;
50483;SDS011;36409;52.168;20.878;2023-03-16T14:37:56;14.70;;;4.35;;
50483;SDS011;36409;52.168;20.878;2023-03-16T14:40:51;10.70;;;3.97;;
50483;SDS011;36409;52.168;20.878;2023-03-16T14:43:22;13.73;;;4.37;;
50483;SDS011;36409;52.168;20.878;2023-03-16T14:45:59;13.20;;;4.40;;
50483;SDS011;36409;52.168;20.878;2023-03-16T14:48:37;12.50;;;3.93;;
50483;SDS011;36409;52.168;20.878;2023-03-16T14:51:09;13.07;;;3.97;;
50483;SDS011;36409;52.168;20.878;2023-03-16T14:53:41;11.40;;;3.57;;
50483;SDS011;36409;52.168;20.878;2023-03-16T14:56:11;16.37;;;4.17;;
50483;SDS011;36409;52.168;20.878;2023-03-16T14:58:40;6.37;;;3.07;;
50483;SDS011;36409;52.168;20.878;2023-03-16T15:01:10;9.57;;;3.50;;
50483;SDS011;36409;52.168;20.878;2023-03-16T15:03:46;14.87;;;4.10;;
50483;SDS011;36409;52.168;20.878;2023-03-16T15:06:16;14.97;;;3.23;;
50483;SDS011;36409;52.168;20.878;2023-03-16T15:08:47;13.00;;;4.03;;
50483;SDS011;36409;52.168;20.878;2023-03-16T15:11:17;8.63;;;3.40;;
50483;SDS011;36409;52.168;20.878;2023-03-16T15:13:47;11.67;;;3.67;;